Time;durP1;ratioP1;P1;durP2;ratioP2;P2;SDS_P1;SDS_P2;PMS_P1;PMS_P2;Temp;Humidity;BMP_temperature;BMP_pressure;BME280_temperature;BME280_humidity;BME280_pressure;Samples;Min_cycle;Max_cycle;Signal;HPM_P1;HPM_P2
2023/04/25 00:07:51;;;;;;;7.60;2.67;;;8.10;99.90;;;;;;20744088;28;20214;-77
2023/04/25 00:17:52;;;;;;;9.07;2.42;;;7.90;99.90;;;;;;20745956;28;20041;-77
2023/04/25 00:27:53;;;;;;;;;;;7.30;99.90;;;;;;20760792;28;20030;-77
2023/04/25 00:37:54;;;;;;;10.83;2.43;;;7.20;99.90;;;;;;20825069;28;19908;-77
2023/04/25 00:47:56;;;;;;;7.32;2.30;;;7.20;99.90;;;;;;20821033;28;20056;-77
2023/04/25 00:57:57;;;;;;;5.22;2.13;;;7.00;99.90;;;;;;20742761;28;20358;-77
2023/04/25 01:07:59;;;;;;;2.22;1.73;;;7.00;99.90;;;;;;20742226;28;20088;-77
2023/04/25 01:18:00;;;;;;;6.82;2.42;;;6.90;99.90;;;;;;20760108;28;20414;-77
2023/04/25 01:28:01;;;;;;;;;;;6.60;99.90;;;;;;20756868;28;20520;-77
2023/04/25 01:38:03;;;;;;;3.53;2.23;;;6.30;99.90;;;;;;20755440;28;19909;-77
2023/04/25 01:48:04;;;;;;;2.70;1.90;;;6.00;99.90;;;;;;20754882;28;20553;-77
2023/04/25 01:58:09;;;;;;;6.63;2.38;;;5.70;99.90;;;;;;20754177;28;20057;-77
2023/04/25 02:08:31;;;;;;;8.60;2.10;;;5.60;99.90;;;;;;20749483;28;20065;-77
2023/04/25 02:18:33;;;;;;;6.75;2.30;;;5.10;99.90;;;;;;20752554;28;20489;-77
2023/04/25 02:28:33;;;;;;;5.13;2.47;;;4.90;99.90;;;;;;20750823;28;20032;-77
2023/04/25 02:38:39;;;;;;;5.57;2.83;;;4.50;99.90;;;;;;20750731;28;20084;-76
2023/04/25 02:48:39;;;;;;;;;;;4.30;99.90;;;;;;20750512;28;20033;-77
2023/04/25 02:58:40;;;;;;;6.53;3.13;;;4.30;99.90;;;;;;20765996;22;19925;-74
2023/04/25 03:08:41;;;;;;;7.53;2.70;;;3.80;99.90;;;;;;20731677;28;20029;-74
2023/04/25 03:18:42;;;;;;;;;;;3.70;99.90;;;;;;20729397;28;20156;-73
2023/04/25 03:28:43;;;;;;;6.88;3.15;;;3.70;99.90;;;;;;20728340;28;19999;-74
2023/04/25 03:38:44;;;;;;;5.72;2.95;;;3.90;99.90;;;;;;20728677;28;20026;-74
2023/04/25 03:48:47;;;;;;;6.38;2.97;;;3.90;99.90;;;;;;20728376;28;20408;-74
2023/04/25 03:58:55;;;;;;;10.68;3.20;;;4.10;99.90;;;;;;20728351;28;20042;-73
2023/04/25 04:08:58;;;;;;;6.68;3.70;;;4.10;99.90;;;;;;20725075;28;20037;-74
2023/04/25 04:18:59;;;;;;;6.63;3.95;;;3.70;99.90;;;;;;20738168;28;20664;-73
2023/04/25 04:29:00;;;;;;;9.35;4.10;;;3.90;99.90;;;;;;20824724;28;20029;-74
2023/04/25 04:39:27;;;;;;;7.13;3.88;;;4.10;99.90;;;;;;20808178;28;20044;-74
2023/04/25 04:49:36;;;;;;;8.48;3.72;;;4.20;99.90;;;;;;20789210;28;20096;-75
2023/04/25 05:00:10;;;;;;;12.63;3.90;;;4.30;99.90;;;;;;20742571;28;20034;-75
2023/04/25 05:10:34;;;;;;;9.17;5.07;;;4.80;99.90;;;;;;20705200;28;20040;-76
2023/04/25 05:20:53;;;;;;;10.65;6.15;;;5.10;99.90;;;;;;20738006;28;20033;-75
2023/04/25 05:31:00;;;;;;;11.60;5.25;;;5.30;99.90;;;;;;20727435;28;20038;-76
2023/04/25 05:41:12;;;;;;;6.40;2.85;;;5.40;99.90;;;;;;20719968;28;20129;-75
2023/04/25 05:51:18;;;;;;;8.25;3.10;;;5.30;99.90;;;;;;20723576;28;20030;-74
2023/04/25 06:01:37;;;;;;;8.40;2.88;;;5.20;99.90;;;;;;20751693;28;20500;-74
2023/04/25 06:11:38;;;;;;;12.57;3.35;;;5.20;99.90;;;;;;20736723;28;20036;-75
2023/04/25 06:21:39;;;;;;;;;;;5.40;99.90;;;;;;20770546;28;20033;-75
2023/04/25 06:31:40;;;;;;;7.50;3.28;;;5.40;99.90;;;;;;20849872;28;20391;-75
2023/04/25 06:41:41;;;;;;;11.18;4.32;;;5.50;99.90;;;;;;20816025;28;20487;-75
2023/04/25 06:51:49;;;;;;;9.10;5.45;;;5.50;99.90;;;;;;20737457;28;20030;-75
2023/04/25 07:01:50;;;;;;;;;;;5.60;99.90;;;;;;20750785;28;20033;-75
2023/04/25 07:11:56;;;;;;;8.25;4.05;;;5.70;99.90;;;;;;20732053;28;19909;-75
2023/04/25 07:21:57;;;;;;;7.43;4.53;;;5.80;99.90;;;;;;20731281;28;20052;-75
2023/04/25 07:31:58;;;;;;;;;;;6.00;99.90;;;;;;20731021;28;20088;-75
2023/04/25 07:41:58;;;;;;;10.18;5.50;;;6.00;99.90;;;;;;20747540;28;19917;-75
2023/04/25 07:52:07;;;;;;;12.90;6.13;;;6.20;99.90;;;;;;20729206;28;20599;-75
2023/04/25 08:02:10;;;;;;;15.60;5.68;;;6.50;99.90;;;;;;20728485;28;20037;-75
2023/04/25 08:12:11;;;;;;;8.85;4.03;;;6.80;99.90;;;;;;20727873;28;20065;-75
2023/04/25 08:22:12;;;;;;;;;;;6.90;99.90;;;;;;20726898;28;20062;-75
2023/04/25 08:32:24;;;;;;;8.02;4.43;;;7.40;99.90;;;;;;20726550;28;19909;-75
2023/04/25 08:42:42;;;;;;;3.63;2.75;;;7.60;99.90;;;;;;20726093;28;20037;-75
2023/04/25 08:52:48;;;;;;;5.53;2.22;;;8.40;99.90;;;;;;20726496;28;20034;-75
2023/04/25 09:02:49;;;;;;;3.80;2.03;;;8.00;99.90;;;;;;20731714;23;20499;-75
2023/04/25 09:13:12;;;;;;;3.75;1.50;;;7.70;99.90;;;;;;20718243;28;20396;-76
2023/04/25 09:23:52;;;;;;;3.20;1.60;;;7.90;99.90;;;;;;20734557;28;20049;-76
2023/04/25 09:34:00;;;;;;;4.13;1.50;;;8.70;99.90;;;;;;20731704;28;20687;-75
2023/04/25 09:44:02;;;;;;;2.40;1.65;;;8.60;99.90;;;;;;20738947;28;20029;-76
2023/04/25 09:54:10;;;;;;;1.80;1.33;;;9.20;99.90;;;;;;20738421;28;20038;-76
2023/04/25 10:04:27;;;;;;;3.20;1.27;;;9.10;99.90;;;;;;20737207;28;20026;-75
2023/04/25 10:14:39;;;;;;;2.80;1.52;;;9.40;99.90;;;;;;20736870;28;20034;-72
2023/04/25 10:24:41;;;;;;;1.42;0.90;;;10.80;99.90;;;;;;20753550;28;20060;-73
2023/04/25 10:34:46;;;;;;;1.02;0.85;;;10.90;99.90;;;;;;20767969;28;20034;-73
2023/04/25 10:45:05;;;;;;;1.42;0.90;;;10.50;99.90;;;;;;20734102;28;20132;-72
2023/04/25 10:55:06;;;;;;;1.98;1.45;;;10.40;99.90;;;;;;20751126;28;20385;-75
2023/04/25 11:05:07;;;;;;;;;;;9.50;99.90;;;;;;20750841;28;20480;-75
2023/04/25 11:15:08;;;;;;;2.30;1.30;;;9.30;99.90;;;;;;20749738;28;19909;-75
2023/04/25 11:25:11;;;;;;;1.38;0.90;;;9.40;99.90;;;;;;20748776;28;20029;-74
2023/04/25 11:35:13;;;;;;;2.83;1.38;;;9.40;99.90;;;;;;20748011;28;20041;-74
2023/04/25 11:45:14;;;;;;;3.13;1.50;;;9.90;99.90;;;;;;20788053;28;20026;-75
2023/04/25 11:55:16;;;;;;;;;;;10.30;99.90;;;;;;20702768;28;20041;-74
2023/04/25 12:05:17;;;;;;;1.53;1.00;;;9.90;99.90;;;;;;20679820;28;19937;-74
2023/04/25 12:15:24;;;;;;;2.43;1.13;;;9.50;99.90;;;;;;20663945;28;20027;-74
2023/04/25 12:25:43;;;;;;;3.15;1.20;;;8.30;99.90;;;;;;20727525;28;20121;-74
2023/04/25 12:35:43;;;;;;;5.15;1.48;;;8.10;99.90;;;;;;20743581;28;20028;-74
2023/04/25 12:45:47;;;;;;;4.20;1.70;;;8.30;99.90;;;;;;20743707;28;20117;-74
2023/04/25 12:55:48;;;;;;;2.95;1.90;;;8.50;99.90;;;;;;20742309;28;20087;-74
2023/04/25 13:05:50;;;;;;;;;;;8.90;99.90;;;;;;20756612;28;20052;-74
2023/04/25 13:15:50;;;;;;;2.15;1.23;;;8.20;99.90;;;;;;20758973;28;19963;-75
2023/04/25 13:25:51;;;;;;;6.37;1.70;;;9.00;99.90;;;;;;20757952;28;20061;-74
2023/04/25 13:35:57;;;;;;;4.83;2.17;;;10.80;99.90;;;;;;20757542;28;20596;-75
2023/04/25 13:45:57;;;;;;;3.50;2.08;;;10.70;99.90;;;;;;20756637;28;20368;-74
2023/04/25 13:55:58;;;;;;;3.37;0.70;;;11.30;99.90;;;;;;20755742;28;20445;-74
2023/04/25 14:05:59;;;;;;;1.47;0.80;;;12.30;99.90;;;;;;20754880;28;20037;-75
2023/04/25 14:16:00;;;;;;;1.50;0.77;;;12.40;99.90;;;;;;20735971;28;20502;-75
2023/04/25 14:26:01;;;;;;;3.57;0.93;;;11.90;99.90;;;;;;20753415;28;20036;-75
2023/04/25 14:36:02;;;;;;;;;;;11.20;99.90;;;;;;20753333;28;20280;-74
2023/04/25 14:46:03;;;;;;;1.77;0.70;;;10.00;99.90;;;;;;20751866;28;19920;-74
2023/04/25 14:56:04;;;;;;;1.00;0.50;;;8.30;99.90;;;;;;20751524;28;20037;-75
2023/04/25 15:06:06;;;;;;;;;;;7.90;99.90;;;;;;20749233;28;20044;-75
2023/04/25 15:16:07;;;;;;;3.60;0.70;;;8.10;99.90;;;;;;20748817;28;19916;-75
2023/04/25 15:26:08;;;;;;;1.55;0.68;;;8.50;99.90;;;;;;20748483;28;20038;-75
2023/04/25 15:36:10;;;;;;;;;;;8.80;99.90;;;;;;20748417;28;20038;-75
2023/04/25 15:46:10;;;;;;;1.60;0.97;;;8.90;99.90;;;;;;20747204;28;19921;-75
2023/04/25 15:56:12;;;;;;;3.00;0.73;;;8.90;99.90;;;;;;20746477;28;20484;-75
2023/04/25 16:06:12;;;;;;;1.40;0.83;;;8.10;99.90;;;;;;20745881;28;20034;-75
2023/04/25 16:16:14;;;;;;;2.37;1.17;;;7.70;99.90;;;;;;20745353;28;20371;-75
2023/04/25 16:26:15;;;;;;;3.00;0.90;;;8.20;99.90;;;;;;20744512;28;20030;-75
2023/04/25 16:36:16;;;;;;;6.03;0.97;;;8.50;99.90;;;;;;20744150;28;20037;-75
2023/04/25 16:46:20;;;;;;;3.93;1.20;;;8.80;99.90;;;;;;20743205;28;20097;-75
2023/04/25 16:56:22;;;;;;;5.43;1.30;;;9.00;99.90;;;;;;20743077;28;20049;-75
2023/04/25 17:06:22;;;;;;;3.33;0.93;;;8.70;99.90;;;;;;20742573;28;20113;-75
2023/04/25 17:16:34;;;;;;;1.70;1.40;;;8.60;99.90;;;;;;20742587;28;20511;-75
2023/04/25 17:26:35;;;;;;;2.57;1.53;;;8.60;99.90;;;;;;20742146;28;20374;-76
2023/04/25 17:36:37;;;;;;;2.72;1.63;;;8.70;99.90;;;;;;20741675;28;20056;-76
2023/04/25 17:46:37;;;;;;;2.75;1.20;;;8.60;99.90;;;;;;20741201;28;20046;-75
2023/04/25 17:56:39;;;;;;;4.77;1.83;;;8.40;99.90;;;;;;20750701;28;20030;-76
2023/04/25 18:06:40;;;;;;;2.65;1.50;;;8.40;99.90;;;;;;20755685;28;20041;-75
2023/04/25 18:16:43;;;;;;;10.32;3.50;;;8.40;99.90;;;;;;20755754;28;20030;-76
2023/04/25 18:26:47;;;;;;;5.20;2.35;;;8.30;99.90;;;;;;20754634;28;20122;-77
2023/04/25 18:36:47;;;;;;;4.53;1.92;;;8.10;99.90;;;;;;20735261;28;20088;-76
2023/04/25 18:46:48;;;;;;;4.73;1.67;;;8.10;99.90;;;;;;20751947;28;20030;-75
2023/04/25 18:56:49;;;;;;;1.30;0.90;;;8.10;99.90;;;;;;20733583;28;20038;-76
2023/04/25 19:06:51;;;;;;;2.47;1.70;;;7.90;99.90;;;;;;20750324;28;20069;-76
2023/04/25 19:16:51;;;;;;;1.77;1.20;;;7.70;99.90;;;;;;20749403;28;20044;-75
2023/04/25 19:26:52;;;;;;;3.70;2.60;;;7.50;99.90;;;;;;20746926;28;20404;-75
2023/04/25 19:36:54;;;;;;;5.53;1.47;;;7.50;99.90;;;;;;20730583;28;20496;-75
2023/04/25 19:46:55;;;;;;;2.13;1.60;;;7.40;99.90;;;;;;20747371;28;20285;-76
2023/04/25 19:56:56;;;;;;;5.63;3.00;;;7.20;99.90;;;;;;20728779;28;20037;-75
2023/04/25 20:06:57;;;;;;;1.60;1.23;;;7.20;99.90;;;;;;20745415;28;20044;-76
2023/04/25 20:16:57;;;;;;;3.33;2.17;;;7.20;99.90;;;;;;20744564;28;20049;-75
2023/04/25 20:26:58;;;;;;;3.00;1.37;;;7.10;99.90;;;;;;20743913;28;20034;-75
2023/04/25 20:37:01;;;;;;;3.43;1.97;;;7.10;99.90;;;;;;20743636;28;20508;-75
2023/04/25 20:47:03;;;;;;;3.28;2.13;;;6.90;99.90;;;;;;20743070;28;20530;-75
2023/04/25 20:57:05;;;;;;;2.90;1.75;;;6.90;99.90;;;;;;20735941;23;20039;-75
2023/04/25 21:07:06;;;;;;;2.75;1.88;;;6.90;99.90;;;;;;20661128;28;20041;-74
2023/04/25 21:17:06;;;;;;;6.10;2.10;;;6.80;99.90;;;;;;20661503;28;20030;-74
2023/04/25 21:27:07;;;;;;;5.13;1.83;;;6.70;99.90;;;;;;20665661;28;20026;-74
2023/04/25 21:37:08;;;;;;;3.63;2.07;;;6.80;99.90;;;;;;20676475;28;20037;-74
2023/04/25 21:47:09;;;;;;;3.93;2.03;;;6.40;99.90;;;;;;20675437;28;20030;-75
2023/04/25 21:57:10;;;;;;;4.03;2.30;;;6.30;99.90;;;;;;20674586;28;20496;-74
2023/04/25 22:07:11;;;;;;;6.93;2.30;;;6.10;99.90;;;;;;20675464;28;20072;-75
2023/04/25 22:17:11;;;;;;;4.95;2.28;;;5.70;99.90;;;;;;20673312;28;20647;-74
2023/04/25 22:27:12;;;;;;;7.13;2.43;;;5.40;99.90;;;;;;20672266;28;20034;-74
2023/04/25 22:37:14;;;;;;;4.30;2.75;;;5.10;99.90;;;;;;20653483;28;20034;-75
2023/04/25 22:47:15;;;;;;;;;;;4.90;99.90;;;;;;20671175;28;20030;-74
2023/04/25 22:57:15;;;;;;;9.18;2.42;;;4.80;99.90;;;;;;20669670;28;20318;-74
2023/04/25 23:07:16;;;;;;;;;;;4.70;99.90;;;;;;20670116;28;20026;-75
